Time;durP1;ratioP1;P1;durP2;ratioP2;P2;SDS_P1;SDS_P2;PMS_P1;PMS_P2;Temp;Humidity;BMP_temperature;BMP_pressure;BME280_temperature;BME280_humidity;BME280_pressure;Samples;Min_cycle;Max_cycle;Signal;HPM_P1;HPM_P2
2021/12/17 00:00:17;;;;;;;65.82;20.05;;;8.20;99.90;;;;;;4932878;28;20125;-65
2021/12/17 00:03:11;;;;;;;60.20;18.98;;;8.10;99.90;;;;;;4925447;28;20528;-65
2021/12/17 00:06:04;;;;;;;61.08;19.30;;;8.10;99.90;;;;;;4948850;28;20106;-65
2021/12/17 00:08:30;;;;;;;66.50;19.42;;;8.10;99.90;;;;;;4914860;28;20047;-65
2021/12/17 00:10:56;;;;;;;56.17;19.38;;;8.10;99.90;;;;;;4911644;28;20050;-65
2021/12/17 00:13:22;;;;;;;89.03;21.52;;;8.10;99.90;;;;;;4915639;28;20083;-64
2021/12/17 00:15:48;;;;;;;87.82;21.05;;;8.10;99.90;;;;;;4915756;28;20043;-65
2021/12/17 00:18:22;;;;;;;67.63;20.27;;;8.10;99.90;;;;;;4928617;28;20061;-65
2021/12/17 00:48:37;;;;;;;25.52;11.18;;;8.00;99.90;;;;;;4926275;29;20046;-65
2021/12/17 00:54:01;;;;;;;28.67;9.98;;;8.00;99.90;;;;;;4908642;29;20051;-65
2021/12/17 00:56:28;;;;;;;22.40;9.20;;;8.00;99.90;;;;;;4930678;29;20102;-65
2021/12/17 00:58:54;;;;;;;22.55;8.60;;;7.90;99.90;;;;;;4930204;29;20054;-65
2021/12/17 01:01:21;;;;;;;21.95;8.80;;;8.00;99.90;;;;;;4932445;29;20047;-65
2021/12/17 01:03:49;;;;;;;21.48;7.95;;;8.00;99.90;;;;;;4909289;29;20055;-65
2021/12/17 01:06:15;;;;;;;16.73;7.15;;;8.00;99.90;;;;;;4927415;29;20996;-65
2021/12/17 01:08:41;;;;;;;16.55;6.88;;;7.90;99.90;;;;;;4927165;29;20078;-65
2021/12/17 01:11:07;;;;;;;14.68;5.82;;;8.00;99.90;;;;;;4926879;28;20047;-65
2021/12/17 01:13:35;;;;;;;13.93;5.43;;;8.00;99.90;;;;;;4922138;28;20058;-65
2021/12/17 01:16:01;;;;;;;15.25;6.28;;;8.00;99.90;;;;;;4931110;28;20070;-65
2021/12/17 01:18:40;;;;;;;17.10;6.10;;;8.00;99.90;;;;;;4912927;28;20344;-64
2021/12/17 01:36:57;;;;;;;8.15;4.60;;;7.90;99.90;;;;;;4947076;28;20063;-65
2021/12/17 01:44:23;;;;;;;9.32;4.38;;;7.90;99.90;;;;;;4911709;28;20105;-65
2021/12/17 01:46:52;;;;;;;9.57;4.40;;;7.90;99.90;;;;;;4930243;29;20128;-65
2021/12/17 02:00:25;;;;;;;7.45;3.92;;;7.90;99.90;;;;;;4917918;29;20097;-65
2021/12/17 02:02:54;;;;;;;7.47;3.83;;;7.90;99.90;;;;;;4916771;29;20062;-65
2021/12/17 02:05:20;;;;;;;9.43;4.35;;;7.90;99.90;;;;;;4918853;29;20063;-65
2021/12/17 02:07:49;;;;;;;7.80;4.00;;;7.90;99.90;;;;;;4918349;29;20082;-65
2021/12/17 02:31:36;;;;;;;8.70;4.70;;;7.90;99.90;;;;;;4901719;29;20043;-65
2021/12/17 02:34:46;;;;;;;8.32;5.05;;;7.90;99.90;;;;;;4917377;29;20070;-65
2021/12/17 02:37:16;;;;;;;8.80;5.00;;;7.90;99.90;;;;;;4931167;29;20402;-65
2021/12/17 02:47:35;;;;;;;7.25;4.60;;;7.80;99.90;;;;;;4932177;29;20538;-65
2021/12/17 02:50:02;;;;;;;12.25;4.80;;;7.80;99.90;;;;;;4917902;29;20052;-65
2021/12/17 02:52:30;;;;;;;8.88;5.05;;;7.80;99.90;;;;;;4905654;29;20503;-65
2021/12/17 02:54:57;;;;;;;9.57;5.35;;;7.80;99.90;;;;;;4923379;29;20098;-65
2021/12/17 02:57:25;;;;;;;9.98;5.20;;;7.80;99.90;;;;;;4924504;29;20517;-65
2021/12/17 02:59:52;;;;;;;10.23;5.45;;;7.80;99.90;;;;;;4944665;28;20137;-65
2021/12/17 03:02:19;;;;;;;7.88;4.15;;;7.80;99.90;;;;;;4913267;29;20089;-65
2021/12/17 03:04:45;;;;;;;8.65;4.88;;;7.80;99.90;;;;;;4927801;29;20042;-65
2021/12/17 03:07:13;;;;;;;10.07;5.32;;;7.80;99.90;;;;;;4913626;29;20102;-65
2021/12/17 03:12:29;;;;;;;9.80;5.00;;;7.80;99.90;;;;;;4944785;28;20043;-65
2021/12/17 03:15:04;;;;;;;8.73;5.00;;;7.80;99.90;;;;;;4933570;28;20106;-65
2021/12/17 03:25:50;;;;;;;10.95;5.32;;;7.80;99.90;;;;;;4915384;28;20046;-65
2021/12/17 03:28:16;;;;;;;9.13;5.00;;;7.80;99.90;;;;;;4919295;28;20054;-65
2021/12/17 03:30:42;;;;;;;10.07;5.35;;;7.80;99.90;;;;;;4923585;28;20043;-65
2021/12/17 03:33:08;;;;;;;9.93;5.22;;;7.80;99.90;;;;;;4924787;28;20047;-65
2021/12/17 03:35:34;;;;;;;10.82;5.22;;;7.80;99.90;;;;;;4912800;28;20043;-65
2021/12/17 03:37:59;;;;;;;12.43;5.82;;;7.80;99.90;;;;;;4913294;28;20046;-65
2021/12/17 03:40:27;;;;;;;7.78;4.72;;;7.80;99.90;;;;;;4929031;28;20121;-65
2021/12/17 03:43:01;;;;;;;14.38;6.22;;;7.80;99.90;;;;;;4928282;28;20098;-65
2021/12/17 03:45:26;;;;;;;15.27;6.10;;;7.80;99.90;;;;;;4928897;28;20051;-65
2021/12/17 03:47:52;;;;;;;10.77;5.90;;;7.80;99.90;;;;;;4913021;28;20555;-65
2021/12/17 03:50:18;;;;;;;16.67;6.20;;;7.80;99.90;;;;;;4927852;28;20047;-65
2021/12/17 03:52:44;;;;;;;12.93;5.80;;;7.80;99.90;;;;;;4926640;28;20062;-65
2021/12/17 03:55:10;;;;;;;16.27;6.20;;;7.80;99.90;;;;;;4925164;28;20558;-65
2021/12/17 03:57:36;;;;;;;15.32;6.30;;;7.90;99.90;;;;;;4928229;28;20051;-65
2021/12/17 04:00:08;;;;;;;13.52;6.40;;;7.80;99.90;;;;;;4920551;28;20050;-64
2021/12/17 04:02:34;;;;;;;13.48;6.07;;;7.80;99.90;;;;;;4920811;28;20083;-64
2021/12/17 04:05:00;;;;;;;10.32;6.03;;;7.80;99.90;;;;;;4922434;28;20151;-65
2021/12/17 04:07:26;;;;;;;11.38;6.20;;;7.80;99.90;;;;;;4913253;28;20047;-65
2021/12/17 04:09:52;;;;;;;11.60;6.22;;;7.80;99.90;;;;;;4927673;28;20487;-65
2021/12/17 04:12:21;;;;;;;12.48;6.53;;;7.80;99.90;;;;;;4914842;28;20128;-65
2021/12/17 04:14:48;;;;;;;13.75;6.95;;;7.70;99.90;;;;;;4921695;28;20047;-65
2021/12/17 04:17:22;;;;;;;20.77;8.80;;;7.80;99.90;;;;;;4912654;28;20063;-65
2021/12/17 04:19:48;;;;;;;23.27;9.32;;;7.80;99.90;;;;;;4910409;28;20513;-65
2021/12/17 04:22:14;;;;;;;18.63;8.90;;;7.80;99.90;;;;;;4893054;28;20059;-65
2021/12/17 04:24:40;;;;;;;18.92;8.82;;;7.80;99.90;;;;;;4925082;28;20082;-65
2021/12/17 04:27:06;;;;;;;20.20;9.18;;;7.80;99.90;;;;;;4912444;29;20039;-65
2021/12/17 04:29:33;;;;;;;21.23;10.10;;;7.80;99.90;;;;;;4922303;29;20051;-65
2021/12/17 04:31:59;;;;;;;20.30;9.82;;;7.80;99.90;;;;;;4908123;29;20043;-65
2021/12/17 04:34:26;;;;;;;21.25;10.13;;;7.80;99.90;;;;;;4902050;29;20039;-65
2021/12/17 04:36:55;;;;;;;21.02;10.10;;;7.80;99.90;;;;;;4917655;29;20054;-65
2021/12/17 04:39:23;;;;;;;19.75;10.63;;;7.80;99.90;;;;;;4915755;29;20054;-65
2021/12/17 04:44:23;;;;;;;28.60;12.30;;;7.80;99.90;;;;;;4913175;29;20043;-65
2021/12/17 04:57:55;;;;;;;25.17;12.82;;;7.80;99.90;;;;;;4930919;28;20067;-65
2021/12/17 05:00:27;;;;;;;24.10;12.25;;;7.80;99.90;;;;;;4925301;28;20055;-65
2021/12/17 05:02:56;;;;;;;27.80;12.70;;;7.80;99.90;;;;;;4928002;28;20055;-65
2021/12/17 05:05:29;;;;;;;30.92;13.60;;;7.80;99.90;;;;;;4930579;29;20079;-65
2021/12/17 05:08:07;;;;;;;25.25;12.52;;;7.80;99.90;;;;;;4924564;29;20794;-64
2021/12/17 05:18:54;;;;;;;25.52;13.25;;;7.80;99.90;;;;;;4925747;29;20078;-65
2021/12/17 05:21:23;;;;;;;26.85;12.57;;;7.70;99.90;;;;;;4944880;28;20050;-65
2021/12/17 05:23:51;;;;;;;23.70;13.07;;;7.70;99.90;;;;;;4915453;29;20043;-65
2021/12/17 05:26:20;;;;;;;23.88;12.48;;;7.70;99.90;;;;;;4926288;29;20106;-65
2021/12/17 05:28:47;;;;;;;28.90;13.85;;;7.80;99.90;;;;;;4931355;28;20035;-65
2021/12/17 05:31:15;;;;;;;22.73;12.43;;;7.70;99.90;;;;;;4925169;29;20158;-65
2021/12/17 05:33:40;;;;;;;26.67;13.00;;;7.70;99.90;;;;;;4911132;29;20039;-65
2021/12/17 05:36:06;;;;;;;32.38;14.15;;;7.80;99.90;;;;;;4930342;29;20055;-65
2021/12/17 05:38:32;;;;;;;26.48;13.68;;;7.80;99.90;;;;;;4926597;29;20043;-65
2021/12/17 05:40:59;;;;;;;34.78;14.02;;;7.80;99.90;;;;;;4929661;29;20154;-65
2021/12/17 05:43:25;;;;;;;30.83;13.27;;;7.80;99.90;;;;;;4924949;29;20051;-65
2021/12/17 05:48:24;;;;;;;32.30;14.20;;;7.70;99.90;;;;;;4927463;28;20047;-65
2021/12/17 05:50:58;;;;;;;30.98;13.18;;;7.70;99.90;;;;;;4913537;29;20584;-65
2021/12/17 05:53:24;;;;;;;31.75;13.40;;;7.80;99.90;;;;;;4924890;29;20068;-65
2021/12/17 05:55:51;;;;;;;30.00;12.63;;;7.80;99.90;;;;;;4943006;28;20153;-65
2021/12/17 05:58:17;;;;;;;31.33;13.55;;;7.80;99.90;;;;;;4929299;29;20427;-65
2021/12/17 06:00:44;;;;;;;32.28;13.55;;;7.80;99.90;;;;;;4906743;29;20047;-65
2021/12/17 06:03:10;;;;;;;38.28;14.07;;;7.80;99.90;;;;;;4913662;28;20125;-65
2021/12/17 06:05:36;;;;;;;37.35;13.68;;;7.80;99.90;;;;;;4924113;29;20058;-65
2021/12/17 06:08:03;;;;;;;35.38;13.43;;;7.80;99.90;;;;;;4926361;29;20055;-65
2021/12/17 06:10:29;;;;;;;36.28;13.82;;;7.80;99.90;;;;;;4911932;29;20493;-65
2021/12/17 06:12:55;;;;;;;27.83;11.80;;;7.80;99.90;;;;;;4912651;28;20110;-65
2021/12/17 06:15:21;;;;;;;32.15;12.55;;;7.80;99.90;;;;;;4944298;28;20220;-65
2021/12/17 06:17:48;;;;;;;30.42;12.93;;;7.80;99.90;;;;;;4927046;29;20082;-65
2021/12/17 06:20:17;;;;;;;32.95;12.65;;;7.80;99.90;;;;;;4924155;29;20051;-65
2021/12/17 06:22:43;;;;;;;35.38;13.35;;;7.80;99.90;;;;;;4925597;28;20505;-65
2021/12/17 06:25:10;;;;;;;28.23;12.73;;;7.80;99.90;;;;;;4915544;28;20047;-65
2021/12/17 06:27:37;;;;;;;27.65;12.20;;;7.70;99.90;;;;;;4946069;28;20055;-65
2021/12/17 06:30:09;;;;;;;28.70;11.90;;;7.70;99.90;;;;;;4940150;28;21050;-65
2021/12/17 06:32:35;;;;;;;31.20;12.98;;;7.70;99.90;;;;;;4923458;28;20059;-65
2021/12/17 06:35:02;;;;;;;28.95;11.63;;;7.70;99.90;;;;;;4908390;29;20047;-65
2021/12/17 06:37:28;;;;;;;38.15;12.52;;;7.70;99.90;;;;;;4914404;29;20111;-65
2021/12/17 06:39:54;;;;;;;31.75;12.15;;;7.70;99.90;;;;;;4915772;28;20513;-65
2021/12/17 06:42:20;;;;;;;34.10;12.25;;;7.60;99.90;;;;;;4895379;29;20191;-65
2021/12/17 06:44:47;;;;;;;29.92;11.75;;;7.60;99.90;;;;;;4925954;28;20541;-65
2021/12/17 06:54:40;;;;;;;33.08;12.32;;;7.60;99.90;;;;;;4927764;29;20046;-65
2021/12/17 07:10:59;;;;;;;23.35;10.77;;;7.60;99.90;;;;;;4922269;28;20537;-65
2021/12/17 07:21:55;;;;;;;26.98;11.35;;;7.60;99.90;;;;;;4947910;28;20313;-65
2021/12/17 07:32:42;;;;;;;30.73;11.25;;;7.60;99.90;;;;;;4909081;28;20550;-65
2021/12/17 07:40:08;;;;;;;29.70;12.35;;;7.60;99.90;;;;;;4927616;29;20046;-65
2021/12/17 07:42:34;;;;;;;30.33;12.40;;;7.70;99.90;;;;;;4915636;29;20494;-65
2021/12/17 07:45:00;;;;;;;29.30;12.00;;;7.70;99.90;;;;;;4928186;29;20450;-65
2021/12/17 07:47:27;;;;;;;29.00;11.57;;;7.70;99.90;;;;;;4928250;29;20051;-65
2021/12/17 07:49:53;;;;;;;25.48;11.43;;;7.70;99.90;;;;;;4923430;28;20430;-65
2021/12/17 07:52:20;;;;;;;25.73;12.13;;;7.70;99.90;;;;;;4925277;29;20160;-65
2021/12/17 07:54:46;;;;;;;31.77;12.07;;;7.80;99.90;;;;;;4896320;29;20118;-65
2021/12/17 07:57:12;;;;;;;25.42;11.02;;;7.70;99.90;;;;;;4928138;29;20051;-65
2021/12/17 07:59:39;;;;;;;30.33;12.32;;;7.70;99.90;;;;;;4896243;28;20051;-65
2021/12/17 08:02:06;;;;;;;30.80;12.77;;;7.70;99.90;;;;;;4925702;29;20055;-65
2021/12/17 08:04:32;;;;;;;33.28;12.77;;;7.70;99.90;;;;;;4940886;28;20047;-65
2021/12/17 08:06:58;;;;;;;29.10;12.65;;;7.80;99.90;;;;;;4928935;28;20490;-65
2021/12/17 08:09:25;;;;;;;25.42;12.27;;;7.70;99.90;;;;;;4897391;28;20110;-65
2021/12/17 08:11:56;;;;;;;31.35;13.20;;;7.80;99.90;;;;;;4910958;28;20054;-65
2021/12/17 08:14:24;;;;;;;35.65;13.48;;;7.80;99.90;;;;;;4900180;28;20704;-65
2021/12/17 08:17:00;;;;;;;36.15;12.45;;;7.80;99.90;;;;;;4949598;28;20054;-65
2021/12/17 08:25:10;;;;;;;31.38;12.73;;;7.80;99.90;;;;;;4930271;28;20043;-65
2021/12/17 08:32:42;;;;;;;30.33;13.45;;;7.90;99.90;;;;;;4922885;28;20049;-65
2021/12/17 08:35:10;;;;;;;31.30;14.00;;;7.90;99.90;;;;;;4908779;29;20047;-65
2021/12/17 08:37:36;;;;;;;32.13;14.57;;;7.90;99.90;;;;;;4930955;29;20173;-65
2021/12/17 08:40:04;;;;;;;31.67;13.88;;;7.90;99.90;;;;;;4927073;29;20058;-65
2021/12/17 08:42:29;;;;;;;29.45;13.60;;;7.90;99.90;;;;;;4897040;29;20051;-65
2021/12/17 08:44:56;;;;;;;36.55;14.80;;;8.00;99.90;;;;;;4896055;29;20880;-65
2021/12/17 08:47:22;;;;;;;34.67;15.57;;;8.00;99.90;;;;;;4915089;29;20103;-65
2021/12/17 08:49:50;;;;;;;32.90;14.25;;;8.00;99.90;;;;;;4930318;29;20091;-65
2021/12/17 08:52:16;;;;;;;31.25;14.40;;;8.00;99.90;;;;;;4947118;28;20059;-65
2021/12/17 08:54:42;;;;;;;29.98;14.10;;;8.10;99.90;;;;;;4925392;29;20047;-65
2021/12/17 08:57:09;;;;;;;31.52;15.15;;;8.10;99.90;;;;;;4929752;29;20098;-65
2021/12/17 08:59:36;;;;;;;30.08;14.30;;;8.10;99.90;;;;;;4930409;28;20173;-65
2021/12/17 09:02:03;;;;;;;27.00;13.95;;;8.00;99.90;;;;;;4928747;28;20047;-65
2021/12/17 09:04:29;;;;;;;31.15;13.55;;;8.10;99.90;;;;;;4927234;28;20390;-65
2021/12/17 09:06:56;;;;;;;30.25;13.02;;;8.10;99.90;;;;;;4915764;28;20050;-65
2021/12/17 09:09:23;;;;;;;33.10;14.25;;;8.20;99.90;;;;;;4930973;28;20109;-65
2021/12/17 09:11:49;;;;;;;30.98;13.55;;;8.20;99.90;;;;;;4914651;28;20195;-65
2021/12/17 09:14:19;;;;;;;30.10;13.23;;;8.20;99.90;;;;;;4929198;28;20051;-65
2021/12/17 09:16:49;;;;;;;30.95;13.52;;;8.20;99.90;;;;;;4913550;28;20509;-65
2021/12/17 09:19:15;;;;;;;25.55;12.30;;;8.20;99.90;;;;;;4924838;28;20712;-65
2021/12/17 09:21:42;;;;;;;29.02;12.57;;;8.20;99.90;;;;;;4924687;28;20519;-65
2021/12/17 09:24:08;;;;;;;27.80;12.85;;;8.30;99.90;;;;;;4928736;28;20155;-65
2021/12/17 09:26:34;;;;;;;27.60;12.65;;;8.30;99.90;;;;;;4930226;28;20051;-65
2021/12/17 09:29:00;;;;;;;25.02;11.93;;;8.30;99.90;;;;;;4947375;28;20043;-65
2021/12/17 09:31:26;;;;;;;24.35;11.45;;;8.30;99.90;;;;;;4944697;28;20043;-65
2021/12/17 09:33:52;;;;;;;31.75;11.65;;;8.30;99.90;;;;;;4925889;28;20051;-65
2021/12/17 09:36:19;;;;;;;22.30;11.27;;;8.40;99.90;;;;;;4925335;28;20062;-65
2021/12/17 09:38:49;;;;;;;21.83;10.68;;;8.40;99.90;;;;;;4914090;28;20049;-65
2021/12/17 09:41:16;;;;;;;25.77;11.20;;;8.40;99.90;;;;;;4925608;28;20526;-65
2021/12/17 09:43:43;;;;;;;25.98;10.35;;;8.40;99.90;;;;;;4913573;28;20050;-65
2021/12/17 09:46:09;;;;;;;25.15;10.73;;;8.40;99.90;;;;;;4944019;28;20105;-65
2021/12/17 09:48:36;;;;;;;27.25;11.40;;;8.40;99.90;;;;;;4915403;28;20102;-65
2021/12/17 09:51:04;;;;;;;24.90;10.25;;;8.50;99.90;;;;;;4910442;28;20050;-65
2021/12/17 09:53:30;;;;;;;22.00;10.38;;;8.50;99.90;;;;;;4927805;28;20426;-65
2021/12/17 09:55:57;;;;;;;21.80;10.02;;;8.50;99.90;;;;;;4932284;28;20142;-65
2021/12/17 09:58:23;;;;;;;25.02;10.25;;;8.50;99.90;;;;;;4940550;28;20050;-66
2021/12/17 10:00:49;;;;;;;22.23;10.30;;;8.60;99.90;;;;;;4913636;28;20051;-65
2021/12/17 10:03:15;;;;;;;21.02;9.55;;;8.50;99.90;;;;;;4925982;29;20552;-65
2021/12/17 10:05:41;;;;;;;25.95;10.55;;;8.50;99.90;;;;;;4924756;29;20058;-65
2021/12/17 10:08:13;;;;;;;26.17;10.38;;;8.60;99.90;;;;;;4907714;29;20406;-65
2021/12/17 10:10:39;;;;;;;22.90;11.15;;;8.60;99.90;;;;;;4947409;28;20051;-64
2021/12/17 10:13:08;;;;;;;27.10;11.27;;;8.60;99.90;;;;;;4931846;29;20055;-65
2021/12/17 10:15:36;;;;;;;27.23;10.88;;;8.60;99.90;;;;;;4930990;29;20051;-65
2021/12/17 10:18:02;;;;;;;21.85;9.73;;;8.60;99.90;;;;;;4931228;29;20039;-65
2021/12/17 10:20:31;;;;;;;21.63;10.00;;;8.70;99.90;;;;;;4916035;29;20058;-65
2021/12/17 10:23:07;;;;;;;24.10;10.55;;;8.60;99.90;;;;;;4908125;29;20055;-65
2021/12/17 10:25:35;;;;;;;23.45;10.52;;;8.70;99.90;;;;;;4931269;28;20174;-65
2021/12/17 10:28:04;;;;;;;19.83;9.68;;;8.70;99.90;;;;;;4916433;28;20601;-65
2021/12/17 10:30:32;;;;;;;21.05;9.23;;;8.70;99.90;;;;;;4915471;28;20094;-65
2021/12/17 10:33:01;;;;;;;22.17;9.57;;;8.70;99.90;;;;;;4929168;28;20054;-65
2021/12/17 10:35:30;;;;;;;22.08;9.23;;;8.70;99.90;;;;;;4929908;28;20051;-64
2021/12/17 10:38:01;;;;;;;18.38;8.98;;;8.80;99.90;;;;;;4931012;28;20062;-65
2021/12/17 10:40:29;;;;;;;18.35;8.63;;;8.80;99.90;;;;;;4932202;28;20566;-65
2021/12/17 10:43:06;;;;;;;20.58;9.45;;;8.80;99.90;;;;;;4928746;28;20058;-65
2021/12/17 10:45:39;;;;;;;19.27;8.88;;;8.80;99.90;;;;;;4914667;28;20089;-65
2021/12/17 10:51:17;;;;;;;17.75;8.45;;;8.90;99.90;;;;;;4930409;29;20051;-65
2021/12/17 10:53:46;;;;;;;15.50;8.05;;;8.90;99.90;;;;;;4927203;28;20620;-65
2021/12/17 10:56:16;;;;;;;18.95;8.50;;;8.90;99.90;;;;;;4931988;28;20054;-64
2021/12/17 10:58:53;;;;;;;16.27;7.85;;;8.90;99.90;;;;;;4930511;28;20047;-65
2021/12/17 11:01:35;;;;;;;12.70;7.72;;;9.00;99.90;;;;;;4927532;29;20106;-65
2021/12/17 11:04:08;;;;;;;11.57;7.28;;;9.00;99.90;;;;;;4924474;29;20075;-65
2021/12/17 11:06:50;;;;;;;10.55;6.45;;;9.00;99.90;;;;;;4929477;28;20415;-65
2021/12/17 11:09:43;;;;;;;13.52;7.05;;;9.00;99.90;;;;;;4914249;28;20498;-65
2021/12/17 11:12:28;;;;;;;12.07;6.38;;;9.10;99.90;;;;;;4927972;29;20039;-65
2021/12/17 11:15:09;;;;;;;11.38;6.22;;;9.00;99.90;;;;;;4912744;28;20074;-65
2021/12/17 11:17:36;;;;;;;9.95;6.20;;;9.10;99.90;;;;;;4870554;28;20474;-65
2021/12/17 11:20:08;;;;;;;10.95;6.80;;;9.10;99.90;;;;;;4935124;28;20534;-65
2021/12/17 11:22:36;;;;;;;10.23;6.20;;;9.10;99.90;;;;;;4924564;28;20058;-65
2021/12/17 11:25:02;;;;;;;11.63;6.35;;;9.10;99.90;;;;;;4921637;28;20082;-65
2021/12/17 11:27:29;;;;;;;7.97;5.78;;;9.10;99.90;;;;;;4927187;28;20427;-64
2021/12/17 11:29:55;;;;;;;10.48;6.32;;;9.10;99.90;;;;;;4922625;28;20046;-65
2021/12/17 11:32:21;;;;;;;10.07;5.97;;;9.10;99.90;;;;;;4922032;28;20047;-65
2021/12/17 11:34:48;;;;;;;12.27;6.45;;;9.10;99.90;;;;;;4926774;28;20522;-65
2021/12/17 11:37:14;;;;;;;10.43;5.97;;;9.10;99.90;;;;;;4927922;28;20043;-64
2021/12/17 11:39:46;;;;;;;8.52;5.93;;;9.10;99.90;;;;;;4920291;28;20560;-65
2021/12/17 11:42:18;;;;;;;9.63;5.80;;;9.10;99.90;;;;;;4922046;28;20143;-64
2021/12/17 11:44:53;;;;;;;9.75;6.05;;;9.10;99.90;;;;;;4921456;28;20040;-64
2021/12/17 11:47:20;;;;;;;8.70;6.28;;;9.10;99.90;;;;;;4927863;29;20054;-64
2021/12/17 11:49:52;;;;;;;11.90;5.78;;;9.10;99.90;;;;;;4921629;29;20250;-65
2021/12/17 11:52:39;;;;;;;13.93;6.20;;;9.10;99.90;;;;;;4912494;29;20059;-64
2021/12/17 11:55:20;;;;;;;10.57;6.20;;;9.10;99.90;;;;;;4928872;28;20450;-65
2021/12/17 11:57:47;;;;;;;9.18;6.55;;;9.20;99.90;;;;;;4922184;28;20051;-65
2021/12/17 12:00:22;;;;;;;11.50;6.28;;;9.20;99.90;;;;;;4927436;28;20521;-65
2021/12/17 12:02:56;;;;;;;11.80;6.75;;;9.20;99.90;;;;;;4920397;28;20200;-64
2021/12/17 12:05:40;;;;;;;11.50;6.90;;;9.20;99.90;;;;;;4921078;28;20039;-65
2021/12/17 12:08:26;;;;;;;10.63;6.43;;;9.20;99.90;;;;;;4926406;29;20055;-65
2021/12/17 12:11:41;;;;;;;10.18;6.63;;;9.20;99.90;;;;;;4927541;28;20043;-65
2021/12/17 12:14:31;;;;;;;8.45;6.18;;;9.10;99.90;;;;;;4906870;29;20058;-65
2021/12/17 12:16:57;;;;;;;12.38;6.15;;;9.20;99.90;;;;;;4910906;29;20077;-65
2021/12/17 12:19:22;;;;;;;10.20;6.60;;;9.10;99.90;;;;;;4906023;29;20043;-65
2021/12/17 12:22:04;;;;;;;8.85;6.28;;;9.10;99.90;;;;;;4911104;29;20047;-65
2021/12/17 12:24:30;;;;;;;13.50;7.03;;;9.20;99.90;;;;;;4941652;28;20467;-65
2021/12/17 12:26:57;;;;;;;11.70;6.95;;;9.20;99.90;;;;;;4926007;28;20138;-65
2021/12/17 12:29:26;;;;;;;8.93;6.47;;;9.20;99.90;;;;;;4903699;28;20078;-64
2021/12/17 12:31:54;;;;;;;10.20;6.85;;;9.20;99.90;;;;;;4940909;28;20528;-65
2021/12/17 12:34:36;;;;;;;9.35;6.75;;;9.20;99.90;;;;;;4924790;29;20093;-64
2021/12/17 12:37:04;;;;;;;12.70;6.40;;;9.20;99.90;;;;;;4925008;28;20051;-64
2021/12/17 12:39:37;;;;;;;9.02;6.15;;;9.20;99.90;;;;;;4917239;28;20174;-65
2021/12/17 12:42:14;;;;;;;10.95;6.40;;;9.20;99.90;;;;;;4908925;28;20089;-65
2021/12/17 12:44:43;;;;;;;9.27;5.88;;;9.20;99.90;;;;;;4925667;28;20111;-65
2021/12/17 12:47:34;;;;;;;10.60;6.72;;;9.20;99.90;;;;;;4924138;28;22176;-65
2021/12/17 12:50:03;;;;;;;9.98;6.25;;;9.20;99.90;;;;;;4920039;29;20051;-65
2021/12/17 12:52:32;;;;;;;8.82;6.25;;;9.20;99.90;;;;;;4914680;29;20505;-64
2021/12/17 12:55:19;;;;;;;7.78;6.03;;;9.30;99.90;;;;;;4907729;29;20143;-64
2021/12/17 12:57:48;;;;;;;7.70;6.15;;;9.30;99.90;;;;;;4925781;28;20126;-65
2021/12/17 13:00:32;;;;;;;10.73;6.57;;;9.30;99.90;;;;;;4929702;28;20051;-65
2021/12/17 13:03:11;;;;;;;8.45;6.53;;;9.30;99.90;;;;;;4927982;29;20062;-65
2021/12/17 13:05:38;;;;;;;12.13;6.50;;;9.30;99.90;;;;;;4927991;29;20501;-65
2021/12/17 13:08:07;;;;;;;8.82;6.40;;;9.30;99.90;;;;;;4930054;29;20047;-65
2021/12/17 13:10:39;;;;;;;6.65;5.38;;;9.30;99.90;;;;;;4927812;29;20085;-65
2021/12/17 13:24:14;;;;;;;6.65;5.30;;;9.30;99.90;;;;;;4928966;28;20154;-65
2021/12/17 13:26:47;;;;;;;7.10;5.60;;;9.30;99.90;;;;;;4925145;28;20437;-65
2021/12/17 13:29:29;;;;;;;6.68;5.45;;;9.30;99.90;;;;;;4930161;29;20058;-65
2021/12/17 13:32:01;;;;;;;10.00;5.30;;;9.30;99.90;;;;;;4909067;29;20846;-65
2021/12/17 13:34:48;;;;;;;8.38;5.93;;;9.30;99.90;;;;;;4926322;28;20055;-65
2021/12/17 13:37:16;;;;;;;10.07;6.30;;;9.30;99.90;;;;;;4930281;28;20585;-65
2021/12/17 13:39:48;;;;;;;8.05;6.10;;;9.30;99.90;;;;;;4930102;28;20058;-65
2021/12/17 13:42:39;;;;;;;9.45;6.72;;;9.30;99.90;;;;;;4925021;28;20130;-65
2021/12/17 13:45:10;;;;;;;8.30;6.28;;;9.30;99.90;;;;;;4932052;29;20085;-65
2021/12/17 13:47:40;;;;;;;8.35;5.93;;;9.30;99.90;;;;;;4924729;29;20045;-65
2021/12/17 13:50:17;;;;;;;7.90;6.30;;;9.30;99.90;;;;;;4928988;28;20074;-65
2021/12/17 13:53:00;;;;;;;8.05;6.38;;;9.30;99.90;;;;;;4915149;28;20065;-65
2021/12/17 13:55:42;;;;;;;7.05;6.28;;;9.30;99.90;;;;;;4930953;28;20057;-65
2021/12/17 13:58:21;;;;;;;8.50;6.32;;;9.30;99.90;;;;;;4914719;29;20107;-65
2021/12/17 14:00:56;;;;;;;7.70;6.38;;;9.30;99.90;;;;;;4915451;28;20521;-65
2021/12/17 14:03:33;;;;;;;11.73;6.55;;;9.30;99.90;;;;;;4929786;28;20058;-65
2021/12/17 14:06:16;;;;;;;7.63;6.10;;;9.30;99.90;;;;;;4924688;28;20047;-65
2021/12/17 14:08:43;;;;;;;8.48;6.45;;;9.30;99.90;;;;;;4925404;29;20047;-65
2021/12/17 14:11:29;;;;;;;11.05;7.10;;;9.30;99.90;;;;;;4892575;29;20051;-65
2021/12/17 14:13:54;;;;;;;7.50;6.43;;;9.30;99.90;;;;;;4928172;29;20506;-65
2021/12/17 14:16:33;;;;;;;9.82;6.47;;;9.20;99.90;;;;;;4913772;29;20051;-65
2021/12/17 14:19:01;;;;;;;10.20;6.80;;;9.30;99.90;;;;;;4913927;28;20149;-65
2021/12/17 14:21:31;;;;;;;10.90;6.40;;;9.30;99.90;;;;;;4925452;28;20506;-65
2021/12/17 14:23:58;;;;;;;8.70;6.80;;;9.30;99.90;;;;;;4928677;28;20047;-65
2021/12/17 14:26:32;;;;;;;8.90;6.68;;;9.30;99.90;;;;;;4928816;28;20043;-65
2021/12/17 14:29:11;;;;;;;8.32;6.72;;;9.30;99.90;;;;;;4944287;28;20495;-65
2021/12/17 14:31:38;;;;;;;9.75;7.10;;;9.30;99.90;;;;;;4929143;28;20668;-65
2021/12/17 14:34:04;;;;;;;8.93;6.60;;;9.30;99.90;;;;;;4927937;28;20050;-65
2021/12/17 14:36:38;;;;;;;9.07;6.97;;;9.30;99.90;;;;;;4924105;28;20055;-65
2021/12/17 14:39:10;;;;;;;9.85;8.10;;;9.30;99.90;;;;;;4927059;29;20479;-65
2021/12/17 14:41:48;;;;;;;9.60;7.53;;;9.30;99.90;;;;;;4916278;29;22693;-65
2021/12/17 14:44:33;;;;;;;9.02;6.72;;;9.30;99.90;;;;;;4907692;29;20050;-65
2021/12/17 14:47:14;;;;;;;10.05;6.68;;;9.30;99.90;;;;;;4916040;28;20819;-65
2021/12/17 15:05:58;;;;;;;9.35;7.13;;;9.20;99.90;;;;;;4948048;28;20047;-65
2021/12/17 15:08:25;;;;;;;9.77;6.85;;;9.20;99.90;;;;;;4947303;28;20031;-65
2021/12/17 15:10:52;;;;;;;9.57;6.90;;;9.20;99.90;;;;;;4931931;28;20047;-65
2021/12/17 15:13:18;;;;;;;11.32;7.15;;;9.20;99.90;;;;;;4925301;28;20510;-65
2021/12/17 15:15:44;;;;;;;11.00;6.85;;;9.20;99.90;;;;;;4926803;28;20051;-65
2021/12/17 15:18:17;;;;;;;10.00;6.93;;;9.10;99.90;;;;;;4924931;28;20538;-65
2021/12/17 15:20:51;;;;;;;9.82;7.43;;;9.20;99.90;;;;;;4926981;28;20059;-65
2021/12/17 15:23:19;;;;;;;8.85;6.72;;;9.10;99.90;;;;;;4905888;28;20043;-65
2021/12/17 15:25:46;;;;;;;11.18;7.18;;;9.10;99.90;;;;;;4926154;28;20047;-65
2021/12/17 15:28:16;;;;;;;11.43;7.82;;;9.10;99.90;;;;;;4927692;28;20118;-65
2021/12/17 15:30:45;;;;;;;10.30;7.30;;;9.10;99.90;;;;;;4928974;28;20043;-64
2021/12/17 15:33:13;;;;;;;10.43;7.55;;;9.10;99.90;;;;;;4940251;28;20051;-65
2021/12/17 15:35:39;;;;;;;11.48;8.32;;;9.10;99.90;;;;;;4907198;28;20161;-65
2021/12/17 15:38:08;;;;;;;10.82;7.68;;;9.10;99.90;;;;;;4922615;28;20066;-65
2021/12/17 15:40:35;;;;;;;14.13;8.10;;;9.10;99.90;;;;;;4942210;28;20043;-65
2021/12/17 15:43:04;;;;;;;16.80;8.05;;;9.00;99.90;;;;;;4924857;28;20494;-65
2021/12/17 15:45:38;;;;;;;16.17;8.77;;;9.00;99.90;;;;;;4922212;28;20051;-65
2021/12/17 15:48:09;;;;;;;16.52;9.48;;;9.00;99.90;;;;;;4927440;29;20068;-65
2021/12/17 15:50:34;;;;;;;15.88;8.90;;;9.00;99.90;;;;;;4929268;28;20039;-65
2021/12/17 15:53:00;;;;;;;20.15;9.45;;;8.90;99.90;;;;;;4912242;28;20304;-65
2021/12/17 15:55:28;;;;;;;19.02;10.27;;;8.90;99.90;;;;;;4911245;28;20055;-65
2021/12/17 15:57:57;;;;;;;24.52;10.48;;;8.90;99.90;;;;;;4945097;28;20062;-65
2021/12/17 16:00:26;;;;;;;22.90;10.10;;;8.90;99.90;;;;;;4923158;28;20063;-66
2021/12/17 16:02:53;;;;;;;19.70;9.95;;;8.90;99.90;;;;;;4923502;28;20497;-65
2021/12/17 16:05:21;;;;;;;19.80;10.07;;;8.90;99.90;;;;;;4920280;28;20380;-61
2021/12/17 16:07:48;;;;;;;22.73;9.98;;;8.90;99.90;;;;;;4914682;28;20047;-62
2021/12/17 16:18:16;;;;;;;25.40;10.93;;;8.80;99.90;;;;;;4925723;28;20047;-61
2021/12/17 16:21:03;;;;;;;26.80;11.05;;;8.80;99.90;;;;;;4940566;28;20043;-62
2021/12/17 16:23:39;;;;;;;24.80;10.45;;;8.80;99.90;;;;;;4944965;28;20533;-61
2021/12/17 16:26:06;;;;;;;26.08;10.40;;;8.80;99.90;;;;;;4908860;28;20152;-62
2021/12/17 16:28:33;;;;;;;33.13;11.18;;;8.80;99.90;;;;;;4928449;28;20529;-61
2021/12/17 16:31:12;;;;;;;31.60;11.52;;;8.70;99.90;;;;;;4928484;28;20055;-62
2021/12/17 16:33:39;;;;;;;26.70;10.38;;;8.70;99.90;;;;;;4927515;29;20534;-62
2021/12/17 16:36:07;;;;;;;25.02;10.75;;;8.70;99.90;;;;;;4912610;29;20054;-63
2021/12/17 16:38:33;;;;;;;30.52;9.82;;;8.70;99.90;;;;;;4925772;29;20122;-62